Terminal Aerodrome Forecast
Issued by NWS

Home | Current Version | Previous Version | Text Only | Print | Product List | Glossary On
Versions: 1 2 3 4 5 6 7 8 9 10 11 12 13 14 15 16 17 18 19 20
000
FTUS41 KBGM 041827 AAA
TAFITH
TAF AMD
KITH 041827Z 0418/0518 18008KT P6SM BKN040
      TEMPO 0419/0423 BKN025
     FM050000 VRB03KT P6SM FEW045
     FM050800 00000KT 3SM BR SCT005
     FM051300 VRB03KT P6SM SKC=

USA.gov is the U.S. government's official web portal to all federal, state and local government web resources and services.